sensor_id;sensor_type;location;lat;lon;timestamp;P1;durP1;ratioP1;P2;durP2;ratioP2
84329;SDS011;74510;42.676;23.432;2023-12-20T00:00:50;200.30;;;80.80;;
84329;SDS011;74510;42.676;23.432;2023-12-20T00:03:16;199.55;;;86.25;;
84329;SDS011;74510;42.676;23.432;2023-12-20T00:05:42;182.45;;;73.80;;
84329;SDS011;74510;42.676;23.432;2023-12-20T00:08:07;180.90;;;75.53;;
84329;SDS011;74510;42.676;23.432;2023-12-20T00:10:32;134.43;;;64.78;;
84329;SDS011;74510;42.676;23.432;2023-12-20T00:12:58;171.93;;;68.07;;
84329;SDS011;74510;42.676;23.432;2023-12-20T00:15:23;167.27;;;66.15;;
84329;SDS011;74510;42.676;23.432;2023-12-20T00:17:48;174.45;;;72.47;;
84329;SDS011;74510;42.676;23.432;2023-12-20T00:20:14;157.65;;;65.85;;
84329;SDS011;74510;42.676;23.432;2023-12-20T00:22:39;166.95;;;71.43;;
84329;SDS011;74510;42.676;23.432;2023-12-20T00:25:05;173.07;;;72.88;;
84329;SDS011;74510;42.676;23.432;2023-12-20T00:27:30;188.93;;;71.78;;
84329;SDS011;74510;42.676;23.432;2023-12-20T00:29:56;154.77;;;64.13;;
84329;SDS011;74510;42.676;23.432;2023-12-20T00:32:21;169.95;;;70.03;;
84329;SDS011;74510;42.676;23.432;2023-12-20T00:34:47;170.95;;;69.78;;
84329;SDS011;74510;42.676;23.432;2023-12-20T00:37:12;168.07;;;68.45;;
84329;SDS011;74510;42.676;23.432;2023-12-20T00:39:37;188.20;;;75.82;;
84329;SDS011;74510;42.676;23.432;2023-12-20T00:42:03;182.07;;;73.90;;
84329;SDS011;74510;42.676;23.432;2023-12-20T00:44:28;190.50;;;73.35;;
84329;SDS011;74510;42.676;23.432;2023-12-20T00:46:54;153.45;;;66.50;;
84329;SDS011;74510;42.676;23.432;2023-12-20T00:49:19;149.23;;;66.28;;
84329;SDS011;74510;42.676;23.432;2023-12-20T00:51:44;174.90;;;70.47;;
84329;SDS011;74510;42.676;23.432;2023-12-20T00:54:10;151.48;;;61.60;;
84329;SDS011;74510;42.676;23.432;2023-12-20T00:56:35;155.18;;;67.30;;
84329;SDS011;74510;42.676;23.432;2023-12-20T00:59:01;155.98;;;67.97;;
84329;SDS011;74510;42.676;23.432;2023-12-20T01:01:26;176.88;;;77.63;;
84329;SDS011;74510;42.676;23.432;2023-12-20T01:03:51;162.88;;;68.95;;
84329;SDS011;74510;42.676;23.432;2023-12-20T01:06:17;140.55;;;63.90;;
84329;SDS011;74510;42.676;23.432;2023-12-20T01:08:43;177.10;;;75.35;;
84329;SDS011;74510;42.676;23.432;2023-12-20T01:11:08;155.50;;;65.63;;
84329;SDS011;74510;42.676;23.432;2023-12-20T01:13:34;164.65;;;72.28;;
84329;SDS011;74510;42.676;23.432;2023-12-20T01:16:00;161.38;;;68.82;;
84329;SDS011;74510;42.676;23.432;2023-12-20T01:18:25;142.75;;;64.15;;
84329;SDS011;74510;42.676;23.432;2023-12-20T01:20:50;132.77;;;58.00;;
84329;SDS011;74510;42.676;23.432;2023-12-20T01:23:16;131.32;;;56.75;;
84329;SDS011;74510;42.676;23.432;2023-12-20T01:25:41;145.27;;;60.92;;
84329;SDS011;74510;42.676;23.432;2023-12-20T01:28:07;150.30;;;65.82;;
84329;SDS011;74510;42.676;23.432;2023-12-20T01:30:32;135.63;;;61.00;;
84329;SDS011;74510;42.676;23.432;2023-12-20T01:32:59;149.80;;;68.35;;
84329;SDS011;74510;42.676;23.432;2023-12-20T01:35:26;156.23;;;68.25;;
84329;SDS011;74510;42.676;23.432;2023-12-20T01:37:51;124.13;;;57.22;;
84329;SDS011;74510;42.676;23.432;2023-12-20T01:40:17;150.80;;;66.13;;
84329;SDS011;74510;42.676;23.432;2023-12-20T01:42:44;155.15;;;66.28;;
84329;SDS011;74510;42.676;23.432;2023-12-20T01:45:10;148.63;;;59.75;;
84329;SDS011;74510;42.676;23.432;2023-12-20T01:47:35;141.00;;;58.13;;
84329;SDS011;74510;42.676;23.432;2023-12-20T01:50:01;132.63;;;55.17;;
84329;SDS011;74510;42.676;23.432;2023-12-20T01:52:28;150.50;;;65.32;;
84329;SDS011;74510;42.676;23.432;2023-12-20T01:54:54;152.38;;;62.30;;
84329;SDS011;74510;42.676;23.432;2023-12-20T01:57:26;115.88;;;51.00;;
84329;SDS011;74510;42.676;23.432;2023-12-20T01:59:52;139.93;;;57.42;;
84329;SDS011;74510;42.676;23.432;2023-12-20T02:02:18;143.23;;;59.00;;
84329;SDS011;74510;42.676;23.432;2023-12-20T02:04:43;155.52;;;61.65;;
84329;SDS011;74510;42.676;23.432;2023-12-20T02:07:09;148.77;;;61.83;;
84329;SDS011;74510;42.676;23.432;2023-12-20T02:09:35;143.25;;;58.88;;
84329;SDS011;74510;42.676;23.432;2023-12-20T02:12:02;132.85;;;57.38;;
84329;SDS011;74510;42.676;23.432;2023-12-20T02:14:28;143.77;;;55.00;;
84329;SDS011;74510;42.676;23.432;2023-12-20T02:16:54;154.35;;;54.90;;
84329;SDS011;74510;42.676;23.432;2023-12-20T02:19:19;157.43;;;62.72;;
84329;SDS011;74510;42.676;23.432;2023-12-20T02:21:45;148.23;;;54.42;;
84329;SDS011;74510;42.676;23.432;2023-12-20T02:24:11;133.07;;;53.88;;
84329;SDS011;74510;42.676;23.432;2023-12-20T02:26:36;126.95;;;57.38;;
84329;SDS011;74510;42.676;23.432;2023-12-20T02:29:01;130.13;;;55.13;;
84329;SDS011;74510;42.676;23.432;2023-12-20T02:31:27;130.77;;;57.80;;
84329;SDS011;74510;42.676;23.432;2023-12-20T02:33:52;138.85;;;55.25;;
84329;SDS011;74510;42.676;23.432;2023-12-20T02:36:18;141.55;;;60.17;;
84329;SDS011;74510;42.676;23.432;2023-12-20T02:38:43;140.07;;;55.85;;
84329;SDS011;74510;42.676;23.432;2023-12-20T02:41:09;136.13;;;61.15;;
84329;SDS011;74510;42.676;23.432;2023-12-20T02:43:34;140.82;;;60.75;;
84329;SDS011;74510;42.676;23.432;2023-12-20T02:45:59;146.65;;;59.33;;
84329;SDS011;74510;42.676;23.432;2023-12-20T02:48:25;143.48;;;58.90;;
84329;SDS011;74510;42.676;23.432;2023-12-20T02:50:50;133.15;;;57.80;;
84329;SDS011;74510;42.676;23.432;2023-12-20T02:53:16;139.38;;;56.50;;
84329;SDS011;74510;42.676;23.432;2023-12-20T02:55:41;128.25;;;54.55;;
84329;SDS011;74510;42.676;23.432;2023-12-20T02:58:07;104.55;;;50.20;;
84329;SDS011;74510;42.676;23.432;2023-12-20T03:00:32;112.63;;;49.20;;
84329;SDS011;74510;42.676;23.432;2023-12-20T03:02:58;132.13;;;51.55;;
84329;SDS011;74510;42.676;23.432;2023-12-20T03:05:24;124.07;;;49.17;;
84329;SDS011;74510;42.676;23.432;2023-12-20T03:07:50;113.85;;;50.40;;
84329;SDS011;74510;42.676;23.432;2023-12-20T03:10:15;127.35;;;47.50;;
84329;SDS011;74510;42.676;23.432;2023-12-20T03:12:40;124.10;;;48.40;;
84329;SDS011;74510;42.676;23.432;2023-12-20T03:15:06;123.53;;;47.25;;
84329;SDS011;74510;42.676;23.432;2023-12-20T03:17:32;119.00;;;49.92;;
84329;SDS011;74510;42.676;23.432;2023-12-20T03:19:57;102.95;;;39.35;;
84329;SDS011;74510;42.676;23.432;2023-12-20T03:22:22;114.68;;;47.58;;
84329;SDS011;74510;42.676;23.432;2023-12-20T03:24:48;114.82;;;47.40;;
84329;SDS011;74510;42.676;23.432;2023-12-20T03:27:13;116.63;;;44.15;;
84329;SDS011;74510;42.676;23.432;2023-12-20T03:29:39;114.93;;;48.13;;
84329;SDS011;74510;42.676;23.432;2023-12-20T03:32:04;117.78;;;49.33;;
84329;SDS011;74510;42.676;23.432;2023-12-20T03:34:30;106.10;;;44.28;;
84329;SDS011;74510;42.676;23.432;2023-12-20T03:36:55;111.30;;;41.75;;
84329;SDS011;74510;42.676;23.432;2023-12-20T03:39:21;96.30;;;39.83;;
84329;SDS011;74510;42.676;23.432;2023-12-20T03:41:46;102.95;;;41.42;;
84329;SDS011;74510;42.676;23.432;2023-12-20T03:44:11;94.03;;;41.78;;
84329;SDS011;74510;42.676;23.432;2023-12-20T03:46:37;86.95;;;43.72;;
84329;SDS011;74510;42.676;23.432;2023-12-20T03:49:02;100.38;;;39.17;;
84329;SDS011;74510;42.676;23.432;2023-12-20T03:51:27;108.38;;;43.78;;
84329;SDS011;74510;42.676;23.432;2023-12-20T03:53:53;92.18;;;39.92;;
84329;SDS011;74510;42.676;23.432;2023-12-20T03:56:18;108.75;;;43.75;;
84329;SDS011;74510;42.676;23.432;2023-12-20T03:58:43;114.10;;;44.42;;
84329;SDS011;74510;42.676;23.432;2023-12-20T04:01:09;94.80;;;40.03;;
84329;SDS011;74510;42.676;23.432;2023-12-20T04:03:38;94.97;;;39.08;;
84329;SDS011;74510;42.676;23.432;2023-12-20T04:06:05;76.63;;;36.47;;
84329;SDS011;74510;42.676;23.432;2023-12-20T04:08:30;81.35;;;39.38;;
84329;SDS011;74510;42.676;23.432;2023-12-20T04:10:56;85.50;;;38.80;;
84329;SDS011;74510;42.676;23.432;2023-12-20T04:13:21;84.78;;;34.33;;
84329;SDS011;74510;42.676;23.432;2023-12-20T04:15:47;72.63;;;31.83;;
84329;SDS011;74510;42.676;23.432;2023-12-20T04:18:15;71.05;;;29.02;;
84329;SDS011;74510;42.676;23.432;2023-12-20T04:20:40;61.33;;;28.73;;
84329;SDS011;74510;42.676;23.432;2023-12-20T04:23:06;64.07;;;26.25;;
84329;SDS011;74510;42.676;23.432;2023-12-20T04:25:31;64.03;;;25.50;;
84329;SDS011;74510;42.676;23.432;2023-12-20T04:27:56;52.80;;;26.83;;
84329;SDS011;74510;42.676;23.432;2023-12-20T04:30:22;66.47;;;26.77;;
84329;SDS011;74510;42.676;23.432;2023-12-20T04:32:47;56.10;;;23.83;;
84329;SDS011;74510;42.676;23.432;2023-12-20T04:35:13;65.32;;;26.88;;
84329;SDS011;74510;42.676;23.432;2023-12-20T04:37:38;72.40;;;24.83;;
84329;SDS011;74510;42.676;23.432;2023-12-20T04:40:04;44.83;;;20.40;;
84329;SDS011;74510;42.676;23.432;2023-12-20T04:42:30;57.83;;;26.30;;
84329;SDS011;74510;42.676;23.432;2023-12-20T04:44:56;51.25;;;23.83;;
84329;SDS011;74510;42.676;23.432;2023-12-20T04:47:21;56.13;;;23.05;;
84329;SDS011;74510;42.676;23.432;2023-12-20T04:49:47;45.25;;;21.58;;
84329;SDS011;74510;42.676;23.432;2023-12-20T04:52:12;45.25;;;21.00;;
84329;SDS011;74510;42.676;23.432;2023-12-20T04:54:37;36.20;;;17.50;;
84329;SDS011;74510;42.676;23.432;2023-12-20T04:57:03;35.40;;;17.90;;
84329;SDS011;74510;42.676;23.432;2023-12-20T04:59:28;36.45;;;16.67;;
84329;SDS011;74510;42.676;23.432;2023-12-20T05:01:54;30.40;;;15.52;;
84329;SDS011;74510;42.676;23.432;2023-12-20T05:04:19;35.10;;;17.48;;
84329;SDS011;74510;42.676;23.432;2023-12-20T05:06:45;37.70;;;16.25;;
84329;SDS011;74510;42.676;23.432;2023-12-20T05:09:10;35.55;;;16.90;;
84329;SDS011;74510;42.676;23.432;2023-12-20T05:11:36;30.13;;;14.68;;
84329;SDS011;74510;42.676;23.432;2023-12-20T05:14:01;35.35;;;15.07;;
84329;SDS011;74510;42.676;23.432;2023-12-20T05:16:27;38.80;;;16.45;;
84329;SDS011;74510;42.676;23.432;2023-12-20T05:18:52;32.45;;;16.85;;
84329;SDS011;74510;42.676;23.432;2023-12-20T05:21:18;36.30;;;17.17;;
84329;SDS011;74510;42.676;23.432;2023-12-20T05:23:43;41.75;;;18.38;;
84329;SDS011;74510;42.676;23.432;2023-12-20T05:26:08;43.85;;;20.70;;
84329;SDS011;74510;42.676;23.432;2023-12-20T05:28:34;43.10;;;19.17;;
84329;SDS011;74510;42.676;23.432;2023-12-20T05:30:59;81.43;;;25.40;;
84329;SDS011;74510;42.676;23.432;2023-12-20T05:33:25;49.60;;;21.10;;
84329;SDS011;74510;42.676;23.432;2023-12-20T05:35:50;42.30;;;19.83;;
84329;SDS011;74510;42.676;23.432;2023-12-20T05:38:15;39.28;;;17.05;;
84329;SDS011;74510;42.676;23.432;2023-12-20T05:40:41;40.05;;;17.48;;
84329;SDS011;74510;42.676;23.432;2023-12-20T05:43:07;38.67;;;17.40;;
84329;SDS011;74510;42.676;23.432;2023-12-20T05:45:32;35.88;;;16.50;;
84329;SDS011;74510;42.676;23.432;2023-12-20T05:47:58;31.55;;;17.15;;
84329;SDS011;74510;42.676;23.432;2023-12-20T05:50:23;38.15;;;15.82;;
84329;SDS011;74510;42.676;23.432;2023-12-20T05:52:49;33.47;;;15.88;;
84329;SDS011;74510;42.676;23.432;2023-12-20T05:55:15;39.05;;;16.23;;
84329;SDS011;74510;42.676;23.432;2023-12-20T05:57:40;33.47;;;15.40;;
84329;SDS011;74510;42.676;23.432;2023-12-20T06:00:08;29.98;;;14.93;;
84329;SDS011;74510;42.676;23.432;2023-12-20T06:02:34;38.13;;;13.38;;
84329;SDS011;74510;42.676;23.432;2023-12-20T06:05:01;31.17;;;14.27;;
84329;SDS011;74510;42.676;23.432;2023-12-20T06:07:30;27.25;;;14.45;;
84329;SDS011;74510;42.676;23.432;2023-12-20T06:09:55;33.40;;;13.30;;
84329;SDS011;74510;42.676;23.432;2023-12-20T06:12:21;37.28;;;15.55;;
84329;SDS011;74510;42.676;23.432;2023-12-20T06:14:46;28.73;;;12.95;;
84329;SDS011;74510;42.676;23.432;2023-12-20T06:17:12;29.70;;;14.55;;
84329;SDS011;74510;42.676;23.432;2023-12-20T06:19:37;32.13;;;12.57;;
84329;SDS011;74510;42.676;23.432;2023-12-20T06:22:02;28.88;;;15.35;;
84329;SDS011;74510;42.676;23.432;2023-12-20T06:24:28;54.88;;;24.90;;
84329;SDS011;74510;42.676;23.432;2023-12-20T06:26:54;58.53;;;22.98;;
84329;SDS011;74510;42.676;23.432;2023-12-20T06:29:20;41.50;;;18.70;;
84329;SDS011;74510;42.676;23.432;2023-12-20T06:31:45;38.92;;;18.48;;
84329;SDS011;74510;42.676;23.432;2023-12-20T06:34:11;35.33;;;16.95;;
84329;SDS011;74510;42.676;23.432;2023-12-20T06:36:36;37.17;;;19.63;;
84329;SDS011;74510;42.676;23.432;2023-12-20T06:39:02;57.05;;;21.38;;
84329;SDS011;74510;42.676;23.432;2023-12-20T06:41:29;47.22;;;19.00;;
84329;SDS011;74510;42.676;23.432;2023-12-20T06:43:54;51.38;;;21.55;;
84329;SDS011;74510;42.676;23.432;2023-12-20T06:46:20;52.10;;;17.40;;
84329;SDS011;74510;42.676;23.432;2023-12-20T06:48:45;38.17;;;15.45;;
84329;SDS011;74510;42.676;23.432;2023-12-20T06:51:11;36.88;;;15.30;;
84329;SDS011;74510;42.676;23.432;2023-12-20T06:53:39;45.17;;;15.73;;
84329;SDS011;74510;42.676;23.432;2023-12-20T06:56:05;35.35;;;12.95;;
84329;SDS011;74510;42.676;23.432;2023-12-20T06:58:30;35.72;;;14.38;;
84329;SDS011;74510;42.676;23.432;2023-12-20T07:00:56;36.30;;;16.10;;
84329;SDS011;74510;42.676;23.432;2023-12-20T07:03:21;42.83;;;17.15;;
84329;SDS011;74510;42.676;23.432;2023-12-20T07:05:46;46.97;;;19.23;;
84329;SDS011;74510;42.676;23.432;2023-12-20T07:08:12;38.60;;;15.88;;
84329;SDS011;74510;42.676;23.432;2023-12-20T07:10:39;45.60;;;18.88;;
84329;SDS011;74510;42.676;23.432;2023-12-20T07:13:04;52.92;;;20.48;;
84329;SDS011;74510;42.676;23.432;2023-12-20T07:15:30;51.78;;;18.10;;
84329;SDS011;74510;42.676;23.432;2023-12-20T07:17:55;47.75;;;19.08;;
84329;SDS011;74510;42.676;23.432;2023-12-20T07:20:21;55.95;;;22.60;;
84329;SDS011;74510;42.676;23.432;2023-12-20T07:22:46;55.78;;;19.33;;
84329;SDS011;74510;42.676;23.432;2023-12-20T07:25:12;90.95;;;43.45;;
84329;SDS011;74510;42.676;23.432;2023-12-20T07:27:38;54.53;;;24.13;;
84329;SDS011;74510;42.676;23.432;2023-12-20T07:30:03;57.10;;;22.98;;
84329;SDS011;74510;42.676;23.432;2023-12-20T07:32:29;43.17;;;21.27;;
84329;SDS011;74510;42.676;23.432;2023-12-20T07:34:55;49.78;;;19.33;;
84329;SDS011;74510;42.676;23.432;2023-12-20T07:37:20;43.03;;;21.35;;
84329;SDS011;74510;42.676;23.432;2023-12-20T07:39:46;47.53;;;20.90;;
84329;SDS011;74510;42.676;23.432;2023-12-20T07:42:11;42.28;;;18.02;;
84329;SDS011;74510;42.676;23.432;2023-12-20T07:44:37;38.20;;;16.30;;
84329;SDS011;74510;42.676;23.432;2023-12-20T07:47:02;36.55;;;17.55;;
84329;SDS011;74510;42.676;23.432;2023-12-20T07:49:28;35.67;;;18.23;;
84329;SDS011;74510;42.676;23.432;2023-12-20T07:51:53;39.03;;;19.77;;
84329;SDS011;74510;42.676;23.432;2023-12-20T07:54:18;44.47;;;18.83;;
84329;SDS011;74510;42.676;23.432;2023-12-20T07:56:45;44.67;;;19.23;;
84329;SDS011;74510;42.676;23.432;2023-12-20T07:59:11;48.55;;;18.23;;
84329;SDS011;74510;42.676;23.432;2023-12-20T08:01:36;48.10;;;18.23;;
84329;SDS011;74510;42.676;23.432;2023-12-20T08:04:02;45.45;;;19.80;;
84329;SDS011;74510;42.676;23.432;2023-12-20T08:06:27;48.70;;;22.05;;
84329;SDS011;74510;42.676;23.432;2023-12-20T08:08:53;58.20;;;23.50;;
84329;SDS011;74510;42.676;23.432;2023-12-20T08:11:18;54.63;;;22.60;;
84329;SDS011;74510;42.676;23.432;2023-12-20T08:13:44;45.80;;;20.80;;
84329;SDS011;74510;42.676;23.432;2023-12-20T08:16:09;55.08;;;21.88;;
84329;SDS011;74510;42.676;23.432;2023-12-20T08:18:34;47.55;;;20.83;;
84329;SDS011;74510;42.676;23.432;2023-12-20T08:21:00;51.55;;;21.17;;
84329;SDS011;74510;42.676;23.432;2023-12-20T08:23:26;59.88;;;23.13;;
84329;SDS011;74510;42.676;23.432;2023-12-20T08:25:52;74.40;;;26.67;;
84329;SDS011;74510;42.676;23.432;2023-12-20T08:28:17;78.72;;;28.25;;
84329;SDS011;74510;42.676;23.432;2023-12-20T08:30:43;66.63;;;26.95;;
84329;SDS011;74510;42.676;23.432;2023-12-20T08:33:08;69.78;;;26.92;;
84329;SDS011;74510;42.676;23.432;2023-12-20T08:35:37;59.67;;;26.00;;
84329;SDS011;74510;42.676;23.432;2023-12-20T08:38:05;57.33;;;24.33;;
84329;SDS011;74510;42.676;23.432;2023-12-20T08:40:31;55.33;;;22.55;;
84329;SDS011;74510;42.676;23.432;2023-12-20T08:42:56;54.78;;;23.58;;
84329;SDS011;74510;42.676;23.432;2023-12-20T08:45:22;68.78;;;24.58;;
84329;SDS011;74510;42.676;23.432;2023-12-20T08:47:47;58.97;;;24.48;;
84329;SDS011;74510;42.676;23.432;2023-12-20T08:50:13;70.93;;;25.38;;
84329;SDS011;74510;42.676;23.432;2023-12-20T08:52:38;48.63;;;24.38;;
84329;SDS011;74510;42.676;23.432;2023-12-20T08:55:04;57.95;;;26.15;;
84329;SDS011;74510;42.676;23.432;2023-12-20T08:57:29;59.53;;;25.77;;
84329;SDS011;74510;42.676;23.432;2023-12-20T08:59:56;62.40;;;25.50;;
84329;SDS011;74510;42.676;23.432;2023-12-20T09:02:22;61.60;;;24.30;;
84329;SDS011;74510;42.676;23.432;2023-12-20T09:04:47;72.90;;;24.38;;
84329;SDS011;74510;42.676;23.432;2023-12-20T09:07:25;66.10;;;25.42;;
84329;SDS011;74510;42.676;23.432;2023-12-20T09:09:52;59.92;;;23.75;;
84329;SDS011;74510;42.676;23.432;2023-12-20T09:12:20;44.25;;;20.10;;
84329;SDS011;74510;42.676;23.432;2023-12-20T09:14:46;52.58;;;23.27;;
84329;SDS011;74510;42.676;23.432;2023-12-20T09:17:13;66.18;;;27.20;;
84329;SDS011;74510;42.676;23.432;2023-12-20T09:19:38;82.88;;;30.10;;
84329;SDS011;74510;42.676;23.432;2023-12-20T09:22:04;65.72;;;27.95;;
84329;SDS011;74510;42.676;23.432;2023-12-20T09:24:30;88.70;;;33.08;;
84329;SDS011;74510;42.676;23.432;2023-12-20T09:26:56;58.42;;;27.75;;
84329;SDS011;74510;42.676;23.432;2023-12-20T09:29:22;52.83;;;22.83;;
84329;SDS011;74510;42.676;23.432;2023-12-20T09:31:48;50.47;;;21.65;;
84329;SDS011;74510;42.676;23.432;2023-12-20T09:34:15;50.08;;;21.35;;
84329;SDS011;74510;42.676;23.432;2023-12-20T09:36:40;59.70;;;25.10;;
84329;SDS011;74510;42.676;23.432;2023-12-20T09:39:11;56.70;;;24.05;;
84329;SDS011;74510;42.676;23.432;2023-12-20T09:41:43;58.58;;;24.48;;
84329;SDS011;74510;42.676;23.432;2023-12-20T09:44:16;57.35;;;22.15;;
84329;SDS011;74510;42.676;23.432;2023-12-20T09:46:43;57.42;;;23.33;;
84329;SDS011;74510;42.676;23.432;2023-12-20T09:49:11;44.65;;;20.30;;
84329;SDS011;74510;42.676;23.432;2023-12-20T09:51:37;45.55;;;21.48;;
84329;SDS011;74510;42.676;23.432;2023-12-20T09:54:03;64.03;;;25.77;;
84329;SDS011;74510;42.676;23.432;2023-12-20T09:56:29;65.15;;;25.42;;
84329;SDS011;74510;42.676;23.432;2023-12-20T09:58:55;63.80;;;27.75;;
84329;SDS011;74510;42.676;23.432;2023-12-20T10:01:20;86.47;;;38.15;;
84329;SDS011;74510;42.676;23.432;2023-12-20T10:03:46;62.67;;;27.60;;
84329;SDS011;74510;42.676;23.432;2023-12-20T10:06:11;63.03;;;26.52;;
84329;SDS011;74510;42.676;23.432;2023-12-20T10:08:37;78.40;;;30.23;;
84329;SDS011;74510;42.676;23.432;2023-12-20T10:11:04;60.03;;;26.75;;
84329;SDS011;74510;42.676;23.432;2023-12-20T10:13:30;78.68;;;28.42;;
84329;SDS011;74510;42.676;23.432;2023-12-20T10:15:55;80.90;;;32.17;;
84329;SDS011;74510;42.676;23.432;2023-12-20T10:18:22;82.35;;;30.83;;
84329;SDS011;74510;42.676;23.432;2023-12-20T10:20:47;81.18;;;32.40;;
84329;SDS011;74510;42.676;23.432;2023-12-20T10:23:13;69.43;;;29.17;;
84329;SDS011;74510;42.676;23.432;2023-12-20T10:25:40;68.95;;;28.13;;
84329;SDS011;74510;42.676;23.432;2023-12-20T10:28:16;73.38;;;32.63;;
84329;SDS011;74510;42.676;23.432;2023-12-20T10:30:47;81.15;;;31.55;;
84329;SDS011;74510;42.676;23.432;2023-12-20T10:33:13;84.68;;;31.20;;
84329;SDS011;74510;42.676;23.432;2023-12-20T10:35:39;91.53;;;34.35;;
84329;SDS011;74510;42.676;23.432;2023-12-20T10:38:05;80.10;;;32.83;;
84329;SDS011;74510;42.676;23.432;2023-12-20T10:40:34;72.90;;;30.20;;
84329;SDS011;74510;42.676;23.432;2023-12-20T10:43:01;93.32;;;33.63;;
84329;SDS011;74510;42.676;23.432;2023-12-20T10:45:27;95.68;;;32.83;;
84329;SDS011;74510;42.676;23.432;2023-12-20T10:47:53;111.38;;;41.67;;
84329;SDS011;74510;42.676;23.432;2023-12-20T10:50:19;95.93;;;34.95;;
84329;SDS011;74510;42.676;23.432;2023-12-20T10:52:45;94.30;;;33.67;;
84329;SDS011;74510;42.676;23.432;2023-12-20T10:55:12;93.22;;;34.67;;
84329;SDS011;74510;42.676;23.432;2023-12-20T10:57:38;108.35;;;38.15;;
84329;SDS011;74510;42.676;23.432;2023-12-20T11:00:05;102.63;;;36.30;;
84329;SDS011;74510;42.676;23.432;2023-12-20T11:02:35;85.32;;;32.90;;
84329;SDS011;74510;42.676;23.432;2023-12-20T11:07:37;73.38;;;30.08;;
84329;SDS011;74510;42.676;23.432;2023-12-20T11:10:13;72.10;;;29.20;;
84329;SDS011;74510;42.676;23.432;2023-12-20T11:15:19;67.68;;;29.13;;
84329;SDS011;74510;42.676;23.432;2023-12-20T11:17:46;92.40;;;29.80;;
84329;SDS011;74510;42.676;23.432;2023-12-20T11:20:21;74.70;;;29.25;;
84329;SDS011;74510;42.676;23.432;2023-12-20T11:22:59;66.78;;;28.27;;
84329;SDS011;74510;42.676;23.432;2023-12-20T11:25:25;76.93;;;28.73;;
84329;SDS011;74510;42.676;23.432;2023-12-20T11:28:07;88.82;;;31.33;;
84329;SDS011;74510;42.676;23.432;2023-12-20T11:30:46;90.55;;;32.05;;
84329;SDS011;74510;42.676;23.432;2023-12-20T11:33:21;72.22;;;28.00;;
84329;SDS011;74510;42.676;23.432;2023-12-20T11:35:50;81.15;;;30.55;;
84329;SDS011;74510;42.676;23.432;2023-12-20T11:38:16;65.18;;;26.80;;
84329;SDS011;74510;42.676;23.432;2023-12-20T11:40:42;74.80;;;30.70;;
84329;SDS011;74510;42.676;23.432;2023-12-20T11:43:09;75.78;;;28.08;;
84329;SDS011;74510;42.676;23.432;2023-12-20T11:45:34;76.43;;;27.70;;
84329;SDS011;74510;42.676;23.432;2023-12-20T11:48:00;68.60;;;26.48;;
84329;SDS011;74510;42.676;23.432;2023-12-20T11:50:27;71.38;;;27.58;;
84329;SDS011;74510;42.676;23.432;2023-12-20T11:52:54;65.22;;;25.98;;
84329;SDS011;74510;42.676;23.432;2023-12-20T11:55:20;58.85;;;26.40;;
84329;SDS011;74510;42.676;23.432;2023-12-20T11:57:46;68.53;;;28.00;;
84329;SDS011;74510;42.676;23.432;2023-12-20T12:00:12;71.85;;;28.70;;
84329;SDS011;74510;42.676;23.432;2023-12-20T12:02:39;67.70;;;26.45;;
84329;SDS011;74510;42.676;23.432;2023-12-20T12:05:04;63.05;;;26.15;;
84329;SDS011;74510;42.676;23.432;2023-12-20T12:07:30;61.60;;;26.13;;
84329;SDS011;74510;42.676;23.432;2023-12-20T12:09:56;79.07;;;27.73;;
84329;SDS011;74510;42.676;23.432;2023-12-20T12:12:22;60.55;;;24.08;;
84329;SDS011;74510;42.676;23.432;2023-12-20T12:14:48;58.33;;;24.05;;
84329;SDS011;74510;42.676;23.432;2023-12-20T12:17:14;69.05;;;28.40;;
84329;SDS011;74510;42.676;23.432;2023-12-20T12:19:40;67.60;;;26.30;;
84329;SDS011;74510;42.676;23.432;2023-12-20T12:22:15;75.47;;;28.58;;
84329;SDS011;74510;42.676;23.432;2023-12-20T12:24:42;68.97;;;26.90;;
84329;SDS011;74510;42.676;23.432;2023-12-20T12:27:09;88.82;;;32.13;;
84329;SDS011;74510;42.676;23.432;2023-12-20T12:29:35;72.25;;;31.02;;
84329;SDS011;74510;42.676;23.432;2023-12-20T12:32:08;80.35;;;30.77;;
84329;SDS011;74510;42.676;23.432;2023-12-20T12:34:35;74.65;;;29.27;;
84329;SDS011;74510;42.676;23.432;2023-12-20T12:37:01;83.68;;;26.67;;
84329;SDS011;74510;42.676;23.432;2023-12-20T12:39:27;74.05;;;28.45;;
84329;SDS011;74510;42.676;23.432;2023-12-20T12:41:54;78.07;;;31.83;;
84329;SDS011;74510;42.676;23.432;2023-12-20T12:44:20;84.45;;;30.02;;
84329;SDS011;74510;42.676;23.432;2023-12-20T12:46:47;69.57;;;28.70;;
84329;SDS011;74510;42.676;23.432;2023-12-20T12:49:16;69.10;;;28.52;;
84329;SDS011;74510;42.676;23.432;2023-12-20T12:51:41;68.15;;;26.95;;
84329;SDS011;74510;42.676;23.432;2023-12-20T12:54:08;80.97;;;26.48;;
84329;SDS011;74510;42.676;23.432;2023-12-20T12:56:34;42.03;;;20.42;;
84329;SDS011;74510;42.676;23.432;2023-12-20T12:59:00;64.22;;;26.05;;
84329;SDS011;74510;42.676;23.432;2023-12-20T13:01:26;64.07;;;23.02;;
84329;SDS011;74510;42.676;23.432;2023-12-20T13:03:51;64.50;;;21.67;;
84329;SDS011;74510;42.676;23.432;2023-12-20T13:06:16;75.47;;;23.35;;
84329;SDS011;74510;42.676;23.432;2023-12-20T13:08:42;94.72;;;25.08;;
84329;SDS011;74510;42.676;23.432;2023-12-20T13:11:09;74.55;;;21.83;;
84329;SDS011;74510;42.676;23.432;2023-12-20T13:13:34;117.80;;;29.42;;
84329;SDS011;74510;42.676;23.432;2023-12-20T13:16:00;88.63;;;34.38;;
84329;SDS011;74510;42.676;23.432;2023-12-20T13:18:26;92.93;;;31.90;;
84329;SDS011;74510;42.676;23.432;2023-12-20T13:20:51;76.05;;;23.58;;
84329;SDS011;74510;42.676;23.432;2023-12-20T13:23:16;56.17;;;23.58;;
84329;SDS011;74510;42.676;23.432;2023-12-20T13:25:43;71.78;;;27.23;;
84329;SDS011;74510;42.676;23.432;2023-12-20T13:28:10;90.65;;;28.75;;
84329;SDS011;74510;42.676;23.432;2023-12-20T13:30:35;89.35;;;29.20;;
84329;SDS011;74510;42.676;23.432;2023-12-20T13:33:01;61.83;;;24.73;;
84329;SDS011;74510;42.676;23.432;2023-12-20T13:35:26;74.47;;;22.35;;
84329;SDS011;74510;42.676;23.432;2023-12-20T13:37:51;53.00;;;20.90;;
84329;SDS011;74510;42.676;23.432;2023-12-20T13:40:17;67.00;;;28.98;;
84329;SDS011;74510;42.676;23.432;2023-12-20T13:42:43;75.90;;;22.63;;
84329;SDS011;74510;42.676;23.432;2023-12-20T13:45:10;67.80;;;22.83;;
84329;SDS011;74510;42.676;23.432;2023-12-20T13:47:36;67.30;;;24.77;;
84329;SDS011;74510;42.676;23.432;2023-12-20T13:50:02;79.43;;;26.92;;
84329;SDS011;74510;42.676;23.432;2023-12-20T13:52:29;61.92;;;23.48;;
84329;SDS011;74510;42.676;23.432;2023-12-20T13:54:54;81.93;;;24.80;;
84329;SDS011;74510;42.676;23.432;2023-12-20T13:57:19;72.45;;;21.58;;
84329;SDS011;74510;42.676;23.432;2023-12-20T13:59:45;85.65;;;26.55;;
84329;SDS011;74510;42.676;23.432;2023-12-20T14:02:10;58.65;;;22.73;;
84329;SDS011;74510;42.676;23.432;2023-12-20T14:04:36;74.00;;;23.70;;